createdAt,value
2018-01-21T00:00:50.299Z,4.84
2018-01-21T00:03:18.753Z,4.75
2018-01-21T00:05:47.221Z,4.77
2018-01-21T00:08:15.665Z,4.79
2018-01-21T00:10:44.091Z,4.63
2018-01-21T00:13:12.476Z,4.45
2018-01-21T00:15:40.901Z,4.66
2018-01-21T00:18:09.350Z,4.55
2018-01-21T00:20:37.776Z,4.60
2018-01-21T00:23:06.221Z,4.47
2018-01-21T00:25:34.719Z,4.51
2018-01-21T00:28:03.212Z,4.56
2018-01-21T00:30:31.700Z,4.61
2018-01-21T00:33:00.217Z,4.64
2018-01-21T00:35:28.643Z,4.55
2018-01-21T00:37:57.129Z,4.50
2018-01-21T00:40:25.519Z,4.50
2018-01-21T00:42:53.949Z,4.52
2018-01-21T00:45:22.356Z,4.40
2018-01-21T00:47:50.792Z,4.34
2018-01-21T00:50:19.225Z,4.28
2018-01-21T00:52:47.648Z,4.23
2018-01-21T00:55:16.031Z,4.16
2018-01-21T00:57:44.452Z,4.10
2018-01-21T01:00:12.833Z,4.11
2018-01-21T01:02:41.325Z,4.00
2018-01-21T01:05:09.819Z,3.95
2018-01-21T01:07:38.273Z,3.84
2018-01-21T01:10:06.785Z,3.72
2018-01-21T01:12:35.295Z,3.89
2018-01-21T01:15:03.718Z,3.92
2018-01-21T01:17:32.159Z,3.87
2018-01-21T01:20:00.550Z,3.83
2018-01-21T01:22:29.009Z,3.81
2018-01-21T01:24:57.428Z,3.73
2018-01-21T01:27:25.890Z,3.64
2018-01-21T01:29:54.316Z,3.70
2018-01-21T01:32:28.182Z,3.71
2018-01-21T01:34:56.576Z,3.65
2018-01-21T01:37:24.967Z,3.58
2018-01-21T01:39:53.468Z,3.58
2018-01-21T01:42:21.848Z,3.58
2018-01-21T01:44:50.269Z,3.60
2018-01-21T01:47:18.706Z,3.57
2018-01-21T01:49:47.205Z,3.53
2018-01-21T01:52:15.644Z,3.52
2018-01-21T01:54:44.056Z,3.46
2018-01-21T01:57:12.533Z,3.45
2018-01-21T01:59:40.957Z,3.40
2018-01-21T02:02:09.402Z,3.37
2018-01-21T02:04:37.910Z,3.36
2018-01-21T02:07:06.297Z,3.30
2018-01-21T02:09:34.694Z,3.13
2018-01-21T02:12:03.112Z,3.05
2018-01-21T02:14:31.524Z,3.06
2018-01-21T02:16:59.971Z,3.00
2018-01-21T02:19:28.412Z,3.04
2018-01-21T02:21:56.814Z,3.13
2018-01-21T02:24:25.304Z,3.12
2018-01-21T02:26:53.709Z,2.81
2018-01-21T02:29:22.153Z,2.75
2018-01-21T02:31:50.649Z,2.62
2018-01-21T02:34:19.037Z,2.78
2018-01-21T02:36:47.476Z,2.56
2018-01-21T02:39:15.924Z,2.87
2018-01-21T02:41:44.323Z,2.93
2018-01-21T02:44:12.749Z,2.87
2018-01-21T02:46:41.236Z,2.89
2018-01-21T02:49:09.647Z,2.81
2018-01-21T02:51:38.087Z,2.92
2018-01-21T02:54:06.521Z,2.78
2018-01-21T02:56:37.885Z,2.93
2018-01-21T02:59:06.312Z,2.99
2018-01-21T03:01:34.710Z,2.80
2018-01-21T03:04:03.141Z,2.68
2018-01-21T03:06:31.577Z,2.71
2018-01-21T03:09:00.006Z,2.84
2018-01-21T03:11:28.466Z,2.91
2018-01-21T03:13:56.942Z,2.95
2018-01-21T03:16:25.332Z,3.01
2018-01-21T03:18:53.766Z,3.02
2018-01-21T03:21:22.245Z,2.92
2018-01-21T03:23:50.639Z,2.92
2018-01-21T03:26:19.060Z,3.09
2018-01-21T03:28:47.444Z,2.93
2018-01-21T03:31:15.869Z,3.07
2018-01-21T03:33:44.320Z,3.13
2018-01-21T03:36:12.761Z,3.14
2018-01-21T03:38:41.184Z,3.00
2018-01-21T03:41:09.620Z,3.09
2018-01-21T03:43:38.157Z,3.15
2018-01-21T03:46:06.565Z,3.07
2018-01-21T03:48:34.945Z,3.17
2018-01-21T03:51:03.381Z,3.23
2018-01-21T03:53:31.882Z,3.02
2018-01-21T03:56:00.277Z,2.96
2018-01-21T03:58:28.709Z,3.05
2018-01-21T04:00:57.231Z,2.97
2018-01-21T04:03:25.620Z,3.07
2018-01-21T04:05:54.189Z,2.99
2018-01-21T04:08:22.785Z,2.89
2018-01-21T04:10:51.230Z,2.81
2018-01-21T04:13:19.661Z,2.85
2018-01-21T04:15:48.114Z,2.97
2018-01-21T04:18:16.589Z,3.07
2018-01-21T04:20:44.954Z,3.15
2018-01-21T04:23:13.479Z,3.14
2018-01-21T04:25:41.887Z,3.14
2018-01-21T04:28:10.329Z,3.06
2018-01-21T04:30:38.762Z,3.15
2018-01-21T04:33:07.194Z,3.06
2018-01-21T04:35:35.617Z,3.11
2018-01-21T04:38:04.059Z,3.11
2018-01-21T04:40:32.489Z,3.22
2018-01-21T04:43:00.972Z,3.27
2018-01-21T04:45:29.487Z,3.21
2018-01-21T04:47:57.874Z,3.26
2018-01-21T04:50:26.273Z,3.23
2018-01-21T04:52:54.689Z,3.13
2018-01-21T04:55:23.191Z,3.14
2018-01-21T04:57:51.729Z,3.19
2018-01-21T05:00:20.880Z,3.05
2018-01-21T05:02:49.290Z,3.05
2018-01-21T05:05:17.818Z,3.14
2018-01-21T05:07:46.261Z,3.21
2018-01-21T05:10:14.700Z,3.20
2018-01-21T05:12:43.127Z,3.20
2018-01-21T05:15:11.563Z,3.17
2018-01-21T05:17:39.953Z,3.22
2018-01-21T05:20:08.397Z,3.21
2018-01-21T05:22:36.859Z,3.28
2018-01-21T05:25:05.292Z,3.24
2018-01-21T05:27:33.698Z,3.18
2018-01-21T05:30:02.131Z,3.19
2018-01-21T05:32:30.590Z,3.23
2018-01-21T05:34:59.080Z,3.26
2018-01-21T05:37:27.497Z,3.06
2018-01-21T05:39:56.006Z,3.12
2018-01-21T05:42:24.477Z,3.18
2018-01-21T05:44:52.969Z,3.17
2018-01-21T05:47:21.400Z,3.23
2018-01-21T05:49:49.873Z,3.26
2018-01-21T05:52:18.304Z,3.27
2018-01-21T05:54:46.818Z,3.28
2018-01-21T05:57:15.212Z,3.29
2018-01-21T05:59:43.721Z,3.24
2018-01-21T06:02:12.300Z,3.25
2018-01-21T06:04:40.749Z,3.17
2018-01-21T06:07:09.132Z,3.22
2018-01-21T06:09:37.587Z,3.19
2018-01-21T06:12:06.020Z,3.18
2018-01-21T06:14:34.437Z,3.00
2018-01-21T06:17:02.876Z,3.08
2018-01-21T06:19:31.349Z,2.77
2018-01-21T06:21:59.766Z,2.68
2018-01-21T06:24:28.249Z,2.84
2018-01-21T06:26:57.624Z,3.04
2018-01-21T06:29:26.141Z,3.15
2018-01-21T06:31:54.568Z,3.18
2018-01-21T06:34:23.012Z,3.26
2018-01-21T06:36:51.522Z,2.92
2018-01-21T06:39:19.980Z,3.00
2018-01-21T06:41:48.477Z,3.20
2018-01-21T06:44:16.949Z,3.29
2018-01-21T06:46:45.450Z,3.38
2018-01-21T06:49:13.850Z,3.33
2018-01-21T06:51:42.260Z,3.39
2018-01-21T06:54:10.713Z,3.38
2018-01-21T06:56:39.168Z,3.36
2018-01-21T06:59:07.642Z,3.37
2018-01-21T07:01:36.096Z,3.21
2018-01-21T07:04:04.524Z,3.10
2018-01-21T07:06:32.942Z,3.19
2018-01-21T07:09:01.413Z,3.13
2018-01-21T07:11:29.858Z,3.04
2018-01-21T07:13:58.284Z,3.29
2018-01-21T07:16:26.672Z,3.29
2018-01-21T07:18:55.112Z,3.05
2018-01-21T07:21:23.512Z,3.25
2018-01-21T07:23:51.964Z,3.44
2018-01-21T07:26:20.524Z,3.54
2018-01-21T07:28:48.968Z,3.62
2018-01-21T07:31:17.519Z,3.64
2018-01-21T07:33:45.916Z,3.75
2018-01-21T07:36:14.356Z,3.79
2018-01-21T07:38:42.760Z,3.83
2018-01-21T07:41:11.147Z,3.82
2018-01-21T07:43:39.651Z,3.49
2018-01-21T07:46:08.042Z,3.82
2018-01-21T07:48:36.509Z,3.89
2018-01-21T07:51:04.904Z,3.95
2018-01-21T07:53:33.421Z,4.08
2018-01-21T07:56:01.867Z,3.98
2018-01-21T07:58:30.364Z,4.21
2018-01-21T08:00:58.860Z,4.30
2018-01-21T08:03:27.333Z,4.43
2018-01-21T08:05:55.829Z,4.48
2018-01-21T08:08:24.283Z,4.49
2018-01-21T08:10:52.755Z,4.68
2018-01-21T08:13:21.247Z,4.65
2018-01-21T08:15:49.733Z,4.56
2018-01-21T08:18:18.226Z,4.74
2018-01-21T08:20:46.695Z,4.75
2018-01-21T08:23:15.088Z,4.92
2018-01-21T08:25:43.538Z,4.91
2018-01-21T08:28:12.073Z,4.92
2018-01-21T08:30:40.519Z,4.74
2018-01-21T08:33:09.010Z,4.56
2018-01-21T08:35:43.029Z,4.63
2018-01-21T08:38:16.933Z,4.79
2018-01-21T08:43:47.425Z,4.72
2018-01-21T08:46:15.922Z,4.81
2018-01-21T08:48:44.504Z,4.90
2018-01-21T08:51:12.986Z,4.72
2018-01-21T08:53:41.457Z,4.87
2018-01-21T08:56:09.888Z,4.77
2018-01-21T08:58:38.335Z,4.79
2018-01-21T09:01:06.850Z,4.84
2018-01-21T09:03:35.316Z,4.47
2018-01-21T09:06:03.744Z,4.40
2018-01-21T09:08:32.207Z,4.60
2018-01-21T09:11:00.659Z,4.69
2018-01-21T09:13:29.056Z,4.74
2018-01-21T09:15:57.552Z,4.45
2018-01-21T09:18:25.999Z,4.48
2018-01-21T09:20:54.453Z,4.57
2018-01-21T09:23:22.987Z,4.56
2018-01-21T09:25:51.412Z,4.53
2018-01-21T09:28:19.841Z,4.61
2018-01-21T09:30:48.260Z,4.58
2018-01-21T09:33:16.759Z,4.61
2018-01-21T09:35:45.205Z,4.67
2018-01-21T09:38:13.641Z,4.84
2018-01-21T09:40:42.053Z,4.70
2018-01-21T09:43:10.534Z,4.82
2018-01-21T09:45:39.035Z,4.80
2018-01-21T09:48:07.486Z,4.73
2018-01-21T09:50:35.880Z,4.68
2018-01-21T09:53:04.316Z,4.88
2018-01-21T09:55:32.777Z,4.57
2018-01-21T09:58:01.176Z,4.64
2018-01-21T10:00:29.641Z,4.78
2018-01-21T10:02:58.129Z,4.44
2018-01-21T10:05:26.577Z,4.49
2018-01-21T10:07:55.005Z,4.63
2018-01-21T10:10:23.460Z,4.61
2018-01-21T10:12:51.950Z,4.61
2018-01-21T10:15:20.712Z,4.70
2018-01-21T10:17:49.144Z,4.75
2018-01-21T10:20:17.548Z,4.57
2018-01-21T10:22:45.988Z,4.76
2018-01-21T10:25:14.403Z,4.71
2018-01-21T10:27:42.832Z,4.67
2018-01-21T10:30:11.265Z,4.81
2018-01-21T10:32:39.763Z,4.86
2018-01-21T10:35:08.213Z,4.92
2018-01-21T10:37:36.673Z,4.81
2018-01-21T10:40:05.146Z,4.86
2018-01-21T10:42:33.565Z,4.81
2018-01-21T10:45:02.025Z,4.75
2018-01-21T10:47:30.561Z,4.72
2018-01-21T10:49:59.020Z,4.82
2018-01-21T10:52:27.482Z,4.93
2018-01-21T10:54:55.948Z,4.99
2018-01-21T10:57:24.388Z,4.96
2018-01-21T10:59:52.791Z,4.83
2018-01-21T11:02:21.205Z,4.95
2018-01-21T11:04:49.709Z,4.92
2018-01-21T11:07:18.180Z,4.74
2018-01-21T11:09:46.563Z,4.62
2018-01-21T11:12:14.984Z,4.74
2018-01-21T11:14:43.369Z,4.47
2018-01-21T11:17:11.869Z,4.58
2018-01-21T11:19:40.317Z,4.57
2018-01-21T11:22:08.817Z,4.54
2018-01-21T11:24:37.265Z,4.67
2018-01-21T11:27:05.657Z,4.63
2018-01-21T11:29:34.100Z,4.63
2018-01-21T11:32:02.553Z,4.67
2018-01-21T11:34:30.949Z,4.55
2018-01-21T11:36:59.381Z,4.71
2018-01-21T11:39:27.853Z,4.29
2018-01-21T11:41:56.281Z,4.55
2018-01-21T11:44:24.762Z,4.67
2018-01-21T11:46:53.384Z,4.81
2018-01-21T11:49:21.873Z,4.88
2018-01-21T11:51:50.301Z,4.78
2018-01-21T11:54:18.720Z,4.88
2018-01-21T11:56:47.224Z,4.96
2018-01-21T11:59:15.688Z,4.96
2018-01-21T12:01:44.129Z,5.05
2018-01-21T12:04:12.618Z,5.05
2018-01-21T12:06:41.040Z,5.05
2018-01-21T12:09:09.485Z,5.03
2018-01-21T12:11:37.943Z,5.06
2018-01-21T12:14:06.416Z,5.00
2018-01-21T12:16:34.859Z,4.94
2018-01-21T12:19:03.267Z,4.98
2018-01-21T12:21:31.715Z,5.03
2018-01-21T12:24:00.185Z,5.08
2018-01-21T12:26:28.701Z,4.94
2018-01-21T12:28:57.177Z,5.06
2018-01-21T12:31:25.673Z,5.06
2018-01-21T12:33:54.110Z,4.82
2018-01-21T12:36:22.597Z,4.68
2018-01-21T12:38:51.054Z,4.89
2018-01-21T12:41:19.509Z,4.75
2018-01-21T12:43:48.005Z,4.92
2018-01-21T12:46:16.464Z,4.67
2018-01-21T12:48:44.873Z,4.86
2018-01-21T12:51:13.357Z,4.91
2018-01-21T12:53:41.849Z,4.92
2018-01-21T12:56:10.362Z,5.02
2018-01-21T12:58:38.855Z,5.06
2018-01-21T13:01:07.292Z,4.86
2018-01-21T13:03:35.716Z,4.86
2018-01-21T13:06:04.149Z,4.80
2018-01-21T13:08:32.591Z,4.86
2018-01-21T13:11:01.002Z,4.67
2018-01-21T13:13:29.513Z,4.84
2018-01-21T13:15:57.936Z,4.67
2018-01-21T13:18:26.420Z,4.86
2018-01-21T13:20:54.865Z,4.83
2018-01-21T13:23:23.331Z,4.81
2018-01-21T13:25:51.804Z,4.95
2018-01-21T13:28:20.232Z,4.98
2018-01-21T13:30:48.685Z,4.96
2018-01-21T13:33:17.136Z,5.02
2018-01-21T13:35:45.529Z,5.08
2018-01-21T13:38:14.025Z,5.04
2018-01-21T13:40:42.460Z,5.04
2018-01-21T13:43:10.916Z,5.09
2018-01-21T13:45:39.423Z,5.09
2018-01-21T13:48:07.894Z,4.97
2018-01-21T13:50:36.406Z,5.04
2018-01-21T13:53:04.801Z,5.00
2018-01-21T13:55:33.248Z,5.07
2018-01-21T13:58:01.656Z,5.09
2018-01-21T14:00:30.096Z,4.92
2018-01-21T14:02:58.506Z,4.85
2018-01-21T14:05:26.958Z,4.90
2018-01-21T14:07:55.385Z,4.96
2018-01-21T14:10:23.846Z,4.93
2018-01-21T14:12:52.301Z,4.97
2018-01-21T14:15:20.738Z,5.01
2018-01-21T14:17:49.181Z,5.02
2018-01-21T14:20:17.581Z,5.10
2018-01-21T14:22:45.984Z,5.15
2018-01-21T14:25:14.412Z,5.03
2018-01-21T14:27:42.815Z,5.12
2018-01-21T14:30:11.262Z,5.14
2018-01-21T14:32:39.725Z,5.11
2018-01-21T14:35:08.169Z,5.09
2018-01-21T14:37:36.625Z,5.09
2018-01-21T14:40:05.041Z,5.16
2018-01-21T14:42:33.489Z,5.19
2018-01-21T14:45:02.005Z,5.21
2018-01-21T14:47:31.414Z,5.20
2018-01-21T14:49:59.908Z,5.17
2018-01-21T14:52:28.300Z,5.18
2018-01-21T14:54:56.728Z,5.16
2018-01-21T14:57:25.136Z,5.08
2018-01-21T14:59:53.636Z,4.84
2018-01-21T15:02:22.079Z,4.93
2018-01-21T15:04:50.577Z,5.01
2018-01-21T15:07:19.056Z,5.01
2018-01-21T15:09:47.548Z,4.84
2018-01-21T15:12:15.952Z,5.02
2018-01-21T15:14:44.461Z,5.02
2018-01-21T15:17:12.853Z,5.03
2018-01-21T15:19:41.338Z,5.03
2018-01-21T15:22:09.833Z,5.04
2018-01-21T15:24:38.329Z,5.02
2018-01-21T15:27:06.749Z,5.04
2018-01-21T15:29:35.144Z,5.04
2018-01-21T15:32:03.620Z,4.96
2018-01-21T15:34:32.106Z,4.86
2018-01-21T15:37:00.509Z,5.01
2018-01-21T15:39:28.973Z,4.96
2018-01-21T15:41:57.380Z,4.98
2018-01-21T15:44:25.821Z,4.94
2018-01-21T15:46:54.409Z,4.94
2018-01-21T15:49:22.815Z,4.60
2018-01-21T15:51:51.260Z,4.67
2018-01-21T15:54:19.714Z,4.80
2018-01-21T15:56:48.151Z,4.66
2018-01-21T15:59:16.544Z,4.78
2018-01-21T16:01:44.981Z,4.77
2018-01-21T16:04:13.371Z,4.80
2018-01-21T16:06:41.815Z,4.78
2018-01-21T16:09:10.310Z,4.67
2018-01-21T16:11:38.769Z,4.60
2018-01-21T16:14:07.191Z,4.72
2018-01-21T16:16:35.682Z,4.64
2018-01-21T16:19:04.121Z,4.71
2018-01-21T16:21:32.517Z,4.71
2018-01-21T16:24:00.950Z,4.76
2018-01-21T16:26:29.405Z,4.69
2018-01-21T16:28:57.873Z,4.66
2018-01-21T16:31:26.310Z,4.80
2018-01-21T16:33:54.717Z,4.69
2018-01-21T16:36:33.936Z,4.64
2018-01-21T16:39:02.455Z,4.71
2018-01-21T16:41:30.961Z,4.72
2018-01-21T16:43:59.452Z,4.66
2018-01-21T16:46:27.910Z,4.67
2018-01-21T16:48:56.321Z,4.68
2018-01-21T16:51:24.725Z,4.53
2018-01-21T16:53:53.192Z,4.54
2018-01-21T16:56:21.600Z,4.44
2018-01-21T16:58:50.052Z,4.47
2018-01-21T17:01:18.465Z,4.47
2018-01-21T17:03:46.897Z,4.51
2018-01-21T17:06:15.337Z,4.55
2018-01-21T17:08:43.777Z,4.48
2018-01-21T17:11:12.184Z,4.47
2018-01-21T17:13:40.622Z,4.51
2018-01-21T17:16:09.121Z,4.30
2018-01-21T17:18:37.521Z,4.37
2018-01-21T17:21:05.952Z,4.35
2018-01-21T17:23:34.485Z,4.15
2018-01-21T17:26:02.961Z,4.30
2018-01-21T17:28:31.382Z,4.02
2018-01-21T17:30:59.881Z,4.20
2018-01-21T17:33:28.380Z,4.14
2018-01-21T17:35:56.840Z,4.10
2018-01-21T17:38:25.331Z,4.19
2018-01-21T17:40:53.836Z,4.15
2018-01-21T17:43:22.335Z,4.26
2018-01-21T17:45:50.777Z,4.33
2018-01-21T17:48:19.171Z,4.37
2018-01-21T17:50:47.616Z,4.35
2018-01-21T17:53:16.117Z,4.44
2018-01-21T17:55:44.550Z,4.40
2018-01-21T17:58:13.033Z,4.34
2018-01-21T18:00:41.566Z,4.42
2018-01-21T18:03:10.013Z,4.31
2018-01-21T18:05:38.399Z,4.42
2018-01-21T18:08:06.857Z,4.37
2018-01-21T18:10:35.345Z,4.13
2018-01-21T18:13:03.877Z,4.16
2018-01-21T18:15:32.328Z,4.20
2018-01-21T18:18:00.732Z,4.21
2018-01-21T18:20:29.325Z,4.35
2018-01-21T18:22:57.877Z,4.38
2018-01-21T18:25:26.273Z,4.25
2018-01-21T18:27:54.718Z,4.05
2018-01-21T18:30:23.115Z,4.23
2018-01-21T18:32:51.518Z,4.26
2018-01-21T18:35:19.962Z,4.21
2018-01-21T18:37:48.441Z,4.20
2018-01-21T18:40:16.885Z,4.14
2018-01-21T18:42:45.389Z,3.91
2018-01-21T18:45:13.820Z,4.07
2018-01-21T18:47:42.217Z,4.23
2018-01-21T18:50:10.648Z,4.28
2018-01-21T18:52:39.085Z,4.26
2018-01-21T18:55:07.614Z,4.06
2018-01-21T18:57:36.063Z,4.21
2018-01-21T19:00:04.512Z,4.00
2018-01-21T19:02:32.998Z,4.10
2018-01-21T19:05:01.452Z,4.00
2018-01-21T19:07:29.907Z,4.08
2018-01-21T19:09:58.308Z,4.09
2018-01-21T19:12:26.744Z,4.21
2018-01-21T19:14:55.137Z,4.25
2018-01-21T19:17:23.588Z,4.27
2018-01-21T19:19:51.988Z,4.25
2018-01-21T19:22:20.436Z,4.26
2018-01-21T19:24:48.892Z,4.19
2018-01-21T19:27:17.399Z,4.11
2018-01-21T19:29:45.905Z,4.00
2018-01-21T19:32:14.341Z,3.92
2018-01-21T19:34:42.736Z,3.79
2018-01-21T19:37:11.261Z,3.81
2018-01-21T19:39:41.265Z,3.78
2018-01-21T19:42:11.656Z,3.76
2018-01-21T19:44:40.108Z,3.62
2018-01-21T19:47:08.561Z,3.67
2018-01-21T19:49:37.009Z,3.54
2018-01-21T19:52:05.501Z,3.66
2018-01-21T19:54:33.960Z,3.68
2018-01-21T19:57:02.357Z,3.76
2018-01-21T19:59:30.797Z,3.59
2018-01-21T20:01:59.253Z,3.67
2018-01-21T20:04:27.721Z,3.60
2018-01-21T20:06:56.278Z,3.60
2018-01-21T20:09:24.718Z,3.61
2018-01-21T20:11:53.141Z,3.79
2018-01-21T20:14:21.572Z,3.70
2018-01-21T20:16:49.988Z,3.79
2018-01-21T20:19:18.402Z,3.69
2018-01-21T20:21:46.829Z,3.73
2018-01-21T20:24:15.305Z,3.78
2018-01-21T20:26:43.704Z,3.71
2018-01-21T20:29:12.127Z,3.71
2018-01-21T20:31:40.599Z,3.70
2018-01-21T20:34:09.066Z,3.70
2018-01-21T20:36:37.493Z,3.64
2018-01-21T20:39:05.908Z,3.48
2018-01-21T20:41:34.356Z,3.67
2018-01-21T20:44:02.800Z,3.73
2018-01-21T20:46:31.235Z,3.67
2018-01-21T20:48:59.660Z,3.80
2018-01-21T20:51:33.532Z,3.89
2018-01-21T20:54:07.402Z,3.66
2018-01-21T20:56:35.807Z,3.75
2018-01-21T20:59:04.263Z,3.84
2018-01-21T21:01:32.661Z,3.89
2018-01-21T21:04:01.139Z,3.89
2018-01-21T21:06:29.686Z,3.83
2018-01-21T21:08:58.124Z,3.80
2018-01-21T21:11:26.621Z,3.86
2018-01-21T21:13:55.079Z,3.83
2018-01-21T21:16:23.517Z,3.84
2018-01-21T21:18:51.947Z,3.75
2018-01-21T21:21:20.381Z,3.75
2018-01-21T21:23:48.778Z,3.70
2018-01-21T21:26:17.208Z,3.62
2018-01-21T21:28:45.736Z,3.79
2018-01-21T21:31:14.227Z,3.91
2018-01-21T21:33:42.689Z,4.01
2018-01-21T21:36:11.169Z,4.03
2018-01-21T21:38:39.572Z,3.98
2018-01-21T21:41:08.151Z,3.98
2018-01-21T21:43:36.546Z,4.00
2018-01-21T21:46:04.969Z,3.91
2018-01-21T21:48:33.489Z,3.87
2018-01-21T21:51:01.881Z,3.92
2018-01-21T21:53:30.314Z,3.93
2018-01-21T21:55:58.837Z,3.92
2018-01-21T21:58:27.232Z,3.74
2018-01-21T22:00:55.714Z,3.71
2018-01-21T22:03:24.099Z,3.59
2018-01-21T22:05:52.605Z,3.68
2018-01-21T22:08:21.101Z,3.61
2018-01-21T22:10:49.576Z,3.62
2018-01-21T22:13:17.996Z,3.69
2018-01-21T22:15:46.452Z,3.75
2018-01-21T22:18:14.964Z,3.56
2018-01-21T22:20:43.544Z,3.68
2018-01-21T22:23:11.941Z,3.86
2018-01-21T22:25:40.404Z,3.77
2018-01-21T22:28:08.913Z,3.82
2018-01-21T22:30:37.323Z,3.82
2018-01-21T22:33:05.783Z,3.73
2018-01-21T22:35:34.249Z,3.71
2018-01-21T22:38:02.642Z,3.75
2018-01-21T22:40:31.069Z,3.79
2018-01-21T22:42:59.505Z,3.80
2018-01-21T22:45:27.946Z,3.65
2018-01-21T22:47:56.376Z,3.71
2018-01-21T22:50:24.912Z,3.62
2018-01-21T22:52:53.404Z,3.23
2018-01-21T22:55:21.820Z,3.41
2018-01-21T22:57:50.224Z,3.48
2018-01-21T23:00:18.709Z,3.24
2018-01-21T23:02:47.153Z,3.41
2018-01-21T23:05:15.584Z,3.43
2018-01-21T23:07:44.081Z,3.44
2018-01-21T23:10:12.513Z,3.47
2018-01-21T23:12:40.997Z,3.47
2018-01-21T23:15:09.560Z,3.41
2018-01-21T23:17:37.957Z,3.25
2018-01-21T23:20:06.349Z,3.46
2018-01-21T23:22:34.800Z,3.28
2018-01-21T23:25:03.344Z,3.39
2018-01-21T23:27:31.853Z,3.41
2018-01-21T23:30:00.254Z,3.31
2018-01-21T23:32:28.793Z,3.24
2018-01-21T23:34:57.263Z,3.28
2018-01-21T23:37:25.753Z,3.24
2018-01-21T23:39:54.157Z,3.29
2018-01-21T23:42:22.643Z,3.41
2018-01-21T23:44:51.034Z,3.34
2018-01-21T23:47:19.468Z,3.29
2018-01-21T23:49:47.896Z,3.43
2018-01-21T23:52:16.345Z,3.43
2018-01-21T23:54:44.768Z,3.44
2018-01-21T23:57:13.171Z,3.51
2018-01-21T23:59:41.675Z,3.48
